createdAt,value
2018-12-17T00:01:03.857Z,95274.11
2018-12-17T00:03:36.127Z,95272.39
2018-12-17T00:06:08.375Z,95268.61
2018-12-17T00:08:38.679Z,95266.53
2018-12-17T00:11:09.000Z,95272.33
2018-12-17T00:13:39.150Z,95272.09
2018-12-17T00:16:09.394Z,95282.45
2018-12-17T00:18:39.579Z,95273.80
2018-12-17T00:21:10.095Z,95277.73
2018-12-17T00:23:40.326Z,95288.83
2018-12-17T00:26:10.531Z,95292.91
2018-12-17T00:28:40.751Z,95302.91
2018-12-17T00:31:10.938Z,95299.06
2018-12-17T00:33:41.145Z,95302.98
2018-12-17T00:36:11.392Z,95301.94
2018-12-17T00:38:41.583Z,95301.33
2018-12-17T00:41:12.739Z,95304.44
2018-12-17T00:43:43.057Z,95304.52
2018-12-17T00:46:13.394Z,95308.39
2018-12-17T00:48:43.734Z,95303.17
2018-12-17T00:51:15.033Z,95299.98
2018-12-17T00:53:45.294Z,95299.92
2018-12-17T00:56:16.106Z,95295.96
2018-12-17T00:58:46.317Z,95294.95
2018-12-17T01:01:17.490Z,95290.95
2018-12-17T01:03:47.690Z,95289.73
2018-12-17T01:06:17.879Z,95288.09
2018-12-17T01:08:48.037Z,95289.45
2018-12-17T01:11:18.897Z,95293.70
2018-12-17T01:13:49.262Z,95299.94
2018-12-17T01:16:20.944Z,95298.30
2018-12-17T01:18:51.203Z,95299.75
2018-12-17T01:21:21.824Z,95306.06
2018-12-17T01:23:52.150Z,95308.99
2018-12-17T01:26:23.354Z,95305.48
2018-12-17T01:28:53.844Z,95310.89
2018-12-17T01:31:24.109Z,95308.22
2018-12-17T01:33:54.427Z,95314.33
2018-12-17T01:36:24.652Z,95314.77
2018-12-17T01:38:54.930Z,95322.72
2018-12-17T01:41:25.574Z,95322.75
2018-12-17T01:43:56.718Z,95323.74
2018-12-17T01:46:28.134Z,95324.02
2018-12-17T01:48:58.285Z,95326.53
2018-12-17T01:51:28.496Z,95327.06
2018-12-17T01:53:58.663Z,95317.91
2018-12-17T01:56:29.244Z,95319.73
2018-12-17T01:58:59.400Z,95325.55
2018-12-17T02:01:29.709Z,95327.31
2018-12-17T02:03:59.932Z,95327.27
2018-12-17T02:06:30.496Z,95325.62
2018-12-17T02:09:00.667Z,95321.73
2018-12-17T02:11:32.824Z,95331.14
2018-12-17T02:14:03.326Z,95331.48
2018-12-17T02:16:33.600Z,95335.43
2018-12-17T02:19:03.800Z,95333.61
2018-12-17T02:21:33.986Z,95341.43
2018-12-17T02:24:04.279Z,95349.19
2018-12-17T02:26:34.580Z,95346.89
2018-12-17T02:29:05.841Z,95351.09
2018-12-17T02:31:36.086Z,95358.42
2018-12-17T02:34:06.402Z,95366.77
2018-12-17T02:36:36.641Z,95368.91
2018-12-17T02:39:08.999Z,95367.98
2018-12-17T02:41:41.262Z,95365.09
2018-12-17T02:44:12.986Z,95370.58
2018-12-17T02:46:43.993Z,95376.29
2018-12-17T02:49:14.543Z,95368.05
2018-12-17T02:51:45.250Z,95368.05
2018-12-17T02:54:15.398Z,95379.50
2018-12-17T02:56:45.594Z,95378.19
2018-12-17T02:59:15.768Z,95378.95
2018-12-17T03:01:46.911Z,95374.47
2018-12-17T03:04:17.659Z,95382.30
2018-12-17T03:06:47.845Z,95382.73
2018-12-17T03:09:18.002Z,95381.62
2018-12-17T03:11:48.195Z,95378.11
2018-12-17T03:14:18.389Z,95380.72
2018-12-17T03:16:49.697Z,95387.63
2018-12-17T03:19:19.886Z,95393.20
2018-12-17T03:21:50.056Z,95391.94
2018-12-17T03:24:20.219Z,95404.58
2018-12-17T03:26:50.542Z,95404.27
2018-12-17T03:29:20.721Z,95399.78
2018-12-17T03:31:51.030Z,95401.34
2018-12-17T03:34:21.343Z,95407.06
2018-12-17T03:36:51.539Z,95412.41
2018-12-17T03:39:21.791Z,95416.81
2018-12-17T03:41:51.976Z,95420.92
2018-12-17T03:44:22.183Z,95419.10
2018-12-17T03:46:52.449Z,95420.40
2018-12-17T03:49:22.616Z,95429.39
2018-12-17T03:51:52.932Z,95426.21
2018-12-17T03:54:23.132Z,95425.49
2018-12-17T03:56:53.664Z,95427.45
2018-12-17T03:59:23.822Z,95430.55
2018-12-17T04:01:54.144Z,95433.99
2018-12-17T04:04:24.336Z,95428.98
2018-12-17T04:06:58.865Z,95439.34
2018-12-17T04:09:29.052Z,95438.91
2018-12-17T04:11:59.349Z,95436.06
2018-12-17T04:14:29.516Z,95445.96
2018-12-17T04:16:59.766Z,95445.59
2018-12-17T04:19:29.936Z,95445.33
2018-12-17T04:22:00.108Z,95461.19
2018-12-17T04:24:30.285Z,95464.36
2018-12-17T04:27:00.480Z,95458.31
2018-12-17T04:29:30.643Z,95464.83
2018-12-17T04:32:00.854Z,95468.13
2018-12-17T04:34:31.040Z,95474.34
2018-12-17T04:37:02.027Z,95476.75
2018-12-17T04:39:33.317Z,95487.10
2018-12-17T04:42:03.518Z,95477.73
2018-12-17T04:44:33.729Z,95478.02
2018-12-17T04:47:03.916Z,95491.91
2018-12-17T04:49:35.261Z,95495.58
2018-12-17T04:52:05.426Z,95501.05
2018-12-17T04:54:35.724Z,95506.96
2018-12-17T04:57:05.952Z,95513.69
2018-12-17T04:59:36.608Z,95509.25
2018-12-17T05:02:06.769Z,95516.94
2018-12-17T05:04:37.248Z,95520.02
2018-12-17T05:07:07.430Z,95522.70
2018-12-17T05:09:37.587Z,95523.31
2018-12-17T05:12:08.883Z,95532.59
2018-12-17T05:14:39.115Z,95538.11
2018-12-17T05:17:09.916Z,95539.42
2018-12-17T05:19:40.154Z,95543.89
2018-12-17T05:22:10.419Z,95545.57
2018-12-17T05:24:40.590Z,95546.41
2018-12-17T05:27:11.045Z,95549.93
2018-12-17T05:29:41.938Z,95562.44
2018-12-17T05:32:12.119Z,95567.58
2018-12-17T05:34:43.097Z,95564.92
2018-12-17T05:37:13.275Z,95574.56
2018-12-17T05:39:43.438Z,95572.18
2018-12-17T05:42:13.673Z,95570.25
2018-12-17T05:44:43.850Z,95569.52
2018-12-17T05:47:14.057Z,95573.42
2018-12-17T05:49:44.265Z,95575.80
2018-12-17T05:52:15.923Z,95572.83
2018-12-17T05:54:46.073Z,95583.56
2018-12-17T05:57:16.506Z,95584.36
2018-12-17T05:59:46.727Z,95593.48
2018-12-17T06:02:16.981Z,95598.89
2018-12-17T06:04:47.300Z,95596.70
2018-12-17T06:07:17.606Z,95595.33
2018-12-17T06:09:47.814Z,95597.93
2018-12-17T06:12:18.006Z,95606.66
2018-12-17T06:14:49.300Z,95611.20
2018-12-17T06:17:20.811Z,95611.42
2018-12-17T06:19:51.029Z,95611.31
2018-12-17T06:22:22.328Z,95617.38
2018-12-17T06:24:54.067Z,95619.27
2018-12-17T06:27:24.328Z,95614.56
2018-12-17T06:29:54.521Z,95626.96
2018-12-17T06:32:24.718Z,95632.47
2018-12-17T06:34:54.881Z,95634.69
2018-12-17T06:37:25.427Z,95628.70
2018-12-17T06:39:55.631Z,95636.83
2018-12-17T06:42:25.962Z,95641.11
2018-12-17T06:44:56.225Z,95643.88
2018-12-17T06:47:26.493Z,95649.45
2018-12-17T06:49:56.679Z,95647.85
2018-12-17T06:52:26.934Z,95658.25
2018-12-17T06:54:57.214Z,95665.35
2018-12-17T06:57:27.417Z,95666.84
2018-12-17T06:59:57.665Z,95674.64
2018-12-17T07:02:27.928Z,95668.48
2018-12-17T07:04:58.091Z,95675.54
2018-12-17T07:07:28.317Z,95676.61
2018-12-17T07:09:58.594Z,95680.70
2018-12-17T07:12:28.776Z,95691.72
2018-12-17T07:14:59.955Z,95690.62
2018-12-17T07:17:30.299Z,95697.30
2018-12-17T07:20:00.468Z,95708.13
2018-12-17T07:22:31.755Z,95706.53
2018-12-17T07:25:03.127Z,95716.72
2018-12-17T07:27:33.313Z,95723.47
2018-12-17T07:30:03.475Z,95727.55
2018-12-17T07:32:33.667Z,95723.94
2018-12-17T07:35:04.369Z,95733.02
2018-12-17T07:37:34.590Z,95740.71
2018-12-17T07:40:05.757Z,95744.05
2018-12-17T07:42:36.081Z,95752.81
2018-12-17T07:45:07.151Z,95757.18
2018-12-17T07:47:37.493Z,95764.44
2018-12-17T07:50:08.467Z,95767.36
2018-12-17T07:52:39.126Z,95767.05
2018-12-17T07:55:09.330Z,95775.27
2018-12-17T07:57:39.602Z,95772.25
2018-12-17T08:00:10.799Z,95782.59
2018-12-17T08:02:41.185Z,95786.58
2018-12-17T08:05:11.347Z,95797.34
2018-12-17T08:07:41.563Z,95797.91
2018-12-17T08:10:13.240Z,95793.37
2018-12-17T08:12:44.134Z,95797.31
2018-12-17T08:15:14.344Z,95808.83
2018-12-17T08:17:44.516Z,95813.55
2018-12-17T08:20:14.731Z,95806.78
2018-12-17T08:22:45.120Z,95811.27
2018-12-17T08:25:16.440Z,95818.32
2018-12-17T08:27:46.857Z,95817.91
2018-12-17T08:30:17.198Z,95826.88
2018-12-17T08:32:48.958Z,95823.78
2018-12-17T08:35:19.190Z,95829.45
2018-12-17T08:37:49.557Z,95832.27
2018-12-17T08:40:19.801Z,95839.40
2018-12-17T08:42:50.064Z,95834.66
2018-12-17T08:45:20.323Z,95842.58
2018-12-17T08:47:50.497Z,95847.64
2018-12-17T08:50:20.822Z,95849.76
2018-12-17T08:52:51.056Z,95857.00
2018-12-17T08:55:21.290Z,95857.13
2018-12-17T08:57:51.592Z,95855.73
2018-12-17T09:00:22.112Z,95862.84
2018-12-17T09:02:52.522Z,95863.02
2018-12-17T09:05:22.839Z,95872.33
2018-12-17T09:07:53.089Z,95867.70
2018-12-17T09:10:23.292Z,95881.05
2018-12-17T09:12:53.689Z,95878.30
2018-12-17T09:15:24.042Z,95879.91
2018-12-17T09:17:54.250Z,95878.30
2018-12-17T09:20:24.684Z,95873.88
2018-12-17T09:22:55.161Z,95878.05
2018-12-17T09:25:25.368Z,95880.77
2018-12-17T09:27:55.580Z,95877.13
2018-12-17T09:30:25.879Z,95885.77
2018-12-17T09:32:56.852Z,95892.02
2018-12-17T09:35:27.091Z,95886.59
2018-12-17T09:37:57.355Z,95886.42
2018-12-17T09:40:27.615Z,95888.75
2018-12-17T09:42:58.294Z,95886.84
2018-12-17T09:45:28.596Z,95888.89
2018-12-17T09:47:58.903Z,95889.73
2018-12-17T09:50:29.178Z,95876.54
2018-12-17T09:52:59.448Z,95880.86
2018-12-17T09:55:29.603Z,95873.33
2018-12-17T09:58:01.913Z,95872.81
2018-12-17T10:00:32.102Z,95871.19
2018-12-17T10:03:02.311Z,95873.48
2018-12-17T10:05:32.511Z,95881.39
2018-12-17T10:08:03.960Z,95874.07
2018-12-17T10:10:34.150Z,95880.48
2018-12-17T10:13:04.614Z,95872.56
2018-12-17T10:15:35.393Z,95875.13
2018-12-17T10:18:05.647Z,95873.67
2018-12-17T10:20:36.243Z,95873.30
2018-12-17T10:23:06.571Z,95875.13
2018-12-17T10:25:36.769Z,95868.50
2018-12-17T10:28:07.025Z,95862.86
2018-12-17T10:30:37.340Z,95870.56
2018-12-17T10:33:07.585Z,95863.25
2018-12-17T10:35:38.077Z,95868.47
2018-12-17T10:38:08.282Z,95867.94
2018-12-17T10:40:40.455Z,95877.84
2018-12-17T10:43:11.084Z,95880.02
2018-12-17T10:45:41.274Z,95886.16
2018-12-17T10:48:11.639Z,95881.15
2018-12-17T10:50:41.834Z,95878.94
2018-12-17T10:53:13.160Z,95890.86
2018-12-17T10:55:43.464Z,95881.34
2018-12-17T10:58:14.808Z,95893.41
2018-12-17T11:00:50.315Z,95886.22
2018-12-17T11:03:25.501Z,95888.71
2018-12-17T11:05:57.068Z,95885.27
2018-12-17T11:08:27.277Z,95889.23
2018-12-17T11:10:57.957Z,95890.30
2018-12-17T11:13:28.811Z,95884.52
2018-12-17T11:15:59.042Z,95884.55
2018-12-17T11:18:29.226Z,95890.17
2018-12-17T11:20:59.424Z,95886.16
2018-12-17T11:23:29.803Z,95889.38
2018-12-17T11:26:00.134Z,95895.35
2018-12-17T11:28:30.641Z,95892.86
2018-12-17T11:31:00.829Z,95900.37
2018-12-17T11:33:31.028Z,95902.17
2018-12-17T11:36:01.228Z,95896.52
2018-12-17T11:38:31.994Z,95899.08
2018-12-17T11:41:02.164Z,95898.48
2018-12-17T11:43:32.592Z,95902.17
2018-12-17T11:46:06.855Z,95907.75
2018-12-17T11:48:38.732Z,95906.06
2018-12-17T11:51:08.864Z,95906.27
2018-12-17T11:53:39.319Z,95908.53
2018-12-17T11:56:10.644Z,95909.09
2018-12-17T11:58:40.845Z,95899.95
2018-12-17T12:01:13.425Z,95898.41
2018-12-17T12:06:23.236Z,95900.05
2018-12-17T12:08:53.522Z,95906.16
2018-12-17T12:11:23.912Z,95905.81
2018-12-17T12:13:54.133Z,95910.86
2018-12-17T12:16:24.316Z,95913.99
2018-12-17T12:18:54.543Z,95919.14
2018-12-17T12:21:24.701Z,95916.40
2018-12-17T12:23:54.910Z,95914.72
2018-12-17T12:26:25.133Z,95918.66
2018-12-17T12:28:55.324Z,95919.30
2018-12-17T12:31:25.489Z,95921.09
2018-12-17T12:33:56.619Z,95920.00
2018-12-17T12:36:27.825Z,95924.08
2018-12-17T12:39:00.111Z,95921.84
2018-12-17T12:41:30.342Z,95933.67
2018-12-17T12:44:01.049Z,95922.00
2018-12-17T12:46:31.355Z,95932.42
2018-12-17T12:49:01.701Z,95918.16
2018-12-17T12:51:32.734Z,95918.42
2018-12-17T12:54:03.387Z,95936.05
2018-12-17T12:56:40.491Z,95944.70
2018-12-17T12:59:11.790Z,95949.98
2018-12-17T13:01:42.024Z,95953.63
2018-12-17T13:04:12.915Z,95957.88
2018-12-17T13:06:43.391Z,95960.23
2018-12-17T13:09:13.638Z,95961.13
2018-12-17T13:11:43.910Z,95958.16
2018-12-17T13:14:14.107Z,95961.91
2018-12-17T13:16:44.459Z,95959.31
2018-12-17T13:19:14.659Z,95963.31
2018-12-17T13:21:44.909Z,95958.70
2018-12-17T13:24:15.361Z,95963.86
2018-12-17T13:26:45.761Z,95957.73
2018-12-17T13:29:15.988Z,95961.87
2018-12-17T13:31:46.234Z,95961.62
2018-12-17T13:34:16.426Z,95961.94
2018-12-17T13:36:47.096Z,95970.55
2018-12-17T13:39:17.383Z,95975.45
2018-12-17T13:41:47.628Z,95975.44
2018-12-17T13:44:18.072Z,95973.57
2018-12-17T13:46:48.416Z,95982.33
2018-12-17T13:49:19.251Z,95982.22
2018-12-17T13:51:54.625Z,95980.00
2018-12-17T13:54:24.790Z,95987.35
2018-12-17T13:56:55.033Z,95988.86
2018-12-17T13:59:25.219Z,95990.58
2018-12-17T14:01:55.577Z,95995.64
2018-12-17T14:04:25.845Z,95996.31
2018-12-17T14:06:56.082Z,95999.22
2018-12-17T14:09:28.585Z,96011.75
2018-12-17T14:11:58.805Z,96010.81
2018-12-17T14:14:29.039Z,96011.33
2018-12-17T14:17:04.734Z,96026.55
2018-12-17T14:19:35.036Z,96028.06
2018-12-17T14:22:09.486Z,96035.03
2018-12-17T14:24:39.684Z,96030.86
2018-12-17T14:27:09.889Z,96033.47
2018-12-17T14:29:40.185Z,96036.91
2018-12-17T14:32:10.387Z,96039.48
2018-12-17T14:34:40.982Z,96047.91
2018-12-17T14:37:11.254Z,96051.25
2018-12-17T14:39:41.428Z,96048.47
2018-12-17T14:42:11.603Z,96050.80
2018-12-17T14:44:41.843Z,96061.45
2018-12-17T14:47:12.254Z,96063.17
2018-12-17T14:49:42.594Z,96065.40
2018-12-17T14:52:12.835Z,96067.13
2018-12-17T14:54:43.153Z,96067.50
2018-12-17T14:57:13.702Z,96074.78
2018-12-17T14:59:44.021Z,96072.95
2018-12-17T15:02:14.175Z,96073.66
2018-12-17T15:04:44.392Z,96079.38
2018-12-17T15:07:14.585Z,96082.52
2018-12-17T15:09:44.778Z,96092.77
2018-12-17T15:12:14.959Z,96090.50
2018-12-17T15:14:45.201Z,96094.20
2018-12-17T15:17:15.435Z,96097.75
2018-12-17T15:19:45.931Z,96099.92
2018-12-17T15:22:16.268Z,96110.77
2018-12-17T15:24:47.135Z,96116.10
2018-12-17T15:27:17.482Z,96124.66
2018-12-17T15:29:47.706Z,96130.93
2018-12-17T15:32:18.175Z,96128.47
2018-12-17T15:34:48.437Z,96129.51
2018-12-17T15:37:18.673Z,96132.02
2018-12-17T15:39:48.977Z,96130.30
2018-12-17T15:42:19.283Z,96138.30
2018-12-17T15:44:49.595Z,96131.81
2018-12-17T15:47:19.759Z,96142.25
2018-12-17T15:49:50.090Z,96138.63
2018-12-17T15:52:20.990Z,96142.55
2018-12-17T15:54:51.331Z,96147.00
2018-12-17T15:57:21.546Z,96155.39
2018-12-17T15:59:51.787Z,96149.80
2018-12-17T16:02:22.163Z,96157.42
2018-12-17T16:04:52.485Z,96161.66
2018-12-17T16:07:23.281Z,96158.05
2018-12-17T16:09:56.420Z,96161.23
2018-12-17T16:12:26.663Z,96166.28
2018-12-17T16:14:56.916Z,96163.47
2018-12-17T16:17:27.323Z,96163.52
2018-12-17T16:19:58.988Z,96162.95
2018-12-17T16:22:29.181Z,96164.59
2018-12-17T16:24:59.454Z,96175.34
2018-12-17T16:27:29.780Z,96170.97
2018-12-17T16:30:00.210Z,96176.79
2018-12-17T16:32:31.951Z,96179.65
2018-12-17T16:35:02.201Z,96176.39
2018-12-17T16:37:32.381Z,96182.02
2018-12-17T16:40:02.671Z,96186.38
2018-12-17T16:42:32.913Z,96189.79
2018-12-17T16:45:03.292Z,96196.45
2018-12-17T16:47:33.450Z,96200.84
2018-12-17T16:50:04.885Z,96206.44
2018-12-17T16:52:34.995Z,96203.34
2018-12-17T16:55:05.781Z,96201.31
2018-12-17T16:57:35.963Z,96205.02
2018-12-17T17:00:09.907Z,96210.61
2018-12-17T17:02:41.434Z,96212.11
2018-12-17T17:05:11.787Z,96213.79
2018-12-17T17:07:43.295Z,96214.02
2018-12-17T17:10:19.060Z,96222.19
2018-12-17T17:12:49.396Z,96221.52
2018-12-17T17:15:19.707Z,96225.80
2018-12-17T17:17:50.232Z,96232.68
2018-12-17T17:20:20.463Z,96243.31
2018-12-17T17:22:50.631Z,96238.24
2018-12-17T17:25:20.911Z,96246.92
2018-12-17T17:27:51.052Z,96243.30
2018-12-17T17:30:21.327Z,96245.65
2018-12-17T17:32:51.565Z,96249.72
2018-12-17T17:35:21.777Z,96248.15
2018-12-17T17:37:53.239Z,96256.08
2018-12-17T17:40:24.488Z,96250.35
2018-12-17T17:42:55.898Z,96256.56
2018-12-17T17:45:26.184Z,96258.00
2018-12-17T17:47:56.387Z,96265.64
2018-12-17T17:50:26.574Z,96268.52
2018-12-17T17:52:56.874Z,96270.39
2018-12-17T17:55:27.179Z,96277.30
2018-12-17T17:57:57.421Z,96275.42
2018-12-17T18:00:27.704Z,96277.67
2018-12-17T18:02:57.935Z,96282.96
2018-12-17T18:05:28.239Z,96292.11
2018-12-17T18:07:58.402Z,96305.92
2018-12-17T18:10:28.853Z,96306.14
2018-12-17T18:12:59.203Z,96313.78
2018-12-17T18:15:29.516Z,96321.43
2018-12-17T18:17:59.736Z,96321.34
2018-12-17T18:20:30.057Z,96327.41
2018-12-17T18:23:00.375Z,96332.63
2018-12-17T18:25:30.729Z,96335.92
2018-12-17T18:28:01.095Z,96338.14
2018-12-17T18:30:31.271Z,96345.64
2018-12-17T18:33:01.594Z,96346.01
2018-12-17T18:35:32.854Z,96348.58
2018-12-17T18:38:03.079Z,96349.48
2018-12-17T18:40:33.319Z,96357.42
2018-12-17T18:43:03.567Z,96363.15
2018-12-17T18:45:33.851Z,96366.96
2018-12-17T18:48:04.203Z,96365.58
2018-12-17T18:50:34.544Z,96370.66
2018-12-17T18:53:04.724Z,96374.42
2018-12-17T18:55:34.918Z,96377.70
2018-12-17T18:58:05.220Z,96379.13
2018-12-17T19:00:35.534Z,96377.98
2018-12-17T19:03:05.875Z,96375.41
2018-12-17T19:05:36.167Z,96375.87
2018-12-17T19:08:07.959Z,96378.14
2018-12-17T19:10:43.466Z,96392.37
2018-12-17T19:13:13.683Z,96391.31
2018-12-17T19:15:43.914Z,96396.48
2018-12-17T19:18:14.208Z,96396.66
2018-12-17T19:20:44.564Z,96400.36
2018-12-17T19:23:15.687Z,96404.50
2018-12-17T19:25:46.052Z,96402.73
2018-12-17T19:28:16.883Z,96411.45
2018-12-17T19:30:47.228Z,96408.93
2018-12-17T19:33:17.501Z,96413.37
2018-12-17T19:35:47.700Z,96418.37
2018-12-17T19:38:17.962Z,96420.13
2018-12-17T19:40:48.273Z,96425.51
2018-12-17T19:43:18.710Z,96419.81
2018-12-17T19:45:49.940Z,96418.89
2018-12-17T19:48:20.058Z,96421.36
2018-12-17T19:50:50.594Z,96423.52
2018-12-17T19:53:21.519Z,96420.59
2018-12-17T19:55:51.760Z,96419.09
2018-12-17T19:58:21.995Z,96425.64
2018-12-17T20:00:52.239Z,96431.80
2018-12-17T20:03:22.557Z,96434.44
2018-12-17T20:05:52.717Z,96432.72
2018-12-17T20:08:23.758Z,96444.15
2018-12-17T20:10:53.986Z,96438.60
2018-12-17T20:13:24.313Z,96439.02
2018-12-17T20:15:54.636Z,96432.85
2018-12-17T20:18:24.826Z,96432.28
2018-12-17T20:20:55.089Z,96444.80
2018-12-17T20:23:25.289Z,96437.70
2018-12-17T20:25:55.557Z,96436.23
2018-12-17T20:28:25.802Z,96441.24
2018-12-17T20:30:56.734Z,96439.72
2018-12-17T20:33:26.968Z,96445.84
2018-12-17T20:35:57.201Z,96442.56
2018-12-17T20:38:27.486Z,96449.87
2018-12-17T20:40:57.720Z,96453.12
2018-12-17T20:43:28.013Z,96454.27
2018-12-17T20:45:58.258Z,96458.73
2018-12-17T20:48:28.598Z,96456.30
2018-12-17T20:50:58.892Z,96466.58
2018-12-17T20:53:29.088Z,96468.58
2018-12-17T20:55:59.278Z,96473.15
2018-12-17T20:58:29.494Z,96470.58
2018-12-17T21:00:59.781Z,96469.42
2018-12-17T21:03:30.013Z,96473.77
2018-12-17T21:06:00.176Z,96470.69
2018-12-17T21:08:30.381Z,96472.00
2018-12-17T21:11:00.685Z,96472.05
2018-12-17T21:13:30.951Z,96478.08
2018-12-17T21:16:01.245Z,96476.16
2018-12-17T21:18:31.667Z,96477.58
2018-12-17T21:21:01.988Z,96483.16
2018-12-17T21:23:33.585Z,96489.39
2018-12-17T21:26:03.849Z,96487.55
2018-12-17T21:28:34.038Z,96483.94
2018-12-17T21:31:04.275Z,96482.70
2018-12-17T21:33:34.449Z,96487.02
2018-12-17T21:36:04.731Z,96487.42
2018-12-17T21:38:34.931Z,96487.77
2018-12-17T21:41:05.203Z,96497.55
2018-12-17T21:43:36.172Z,96495.11
2018-12-17T21:46:06.449Z,96496.13
2018-12-17T21:48:36.646Z,96496.46
2018-12-17T21:51:06.918Z,96501.56
2018-12-17T21:53:37.110Z,96504.06
2018-12-17T21:56:07.873Z,96503.46
2018-12-17T21:58:38.143Z,96511.95
2018-12-17T22:01:08.333Z,96502.63
2018-12-17T22:03:38.669Z,96503.80
2018-12-17T22:06:08.939Z,96503.30
2018-12-17T22:08:39.052Z,96504.02
2018-12-17T22:11:09.307Z,96496.42
2018-12-17T22:13:39.486Z,96502.37
2018-12-17T22:16:09.753Z,96504.81
2018-12-17T22:18:40.009Z,96502.37
2018-12-17T22:21:10.278Z,96502.44
2018-12-17T22:23:40.416Z,96504.38
2018-12-17T22:26:11.761Z,96510.87
2018-12-17T22:28:41.955Z,96506.64
2018-12-17T22:31:13.251Z,96503.37
2018-12-17T22:33:44.970Z,96504.83
2018-12-17T22:36:15.426Z,96507.80
2018-12-17T22:38:45.755Z,96509.58
2018-12-17T22:41:16.029Z,96509.53
2018-12-17T22:43:46.229Z,96500.73
2018-12-17T22:46:16.614Z,96506.06
2018-12-17T22:48:46.884Z,96508.63
2018-12-17T22:51:17.131Z,96508.38
2018-12-17T22:53:47.269Z,96508.97
2018-12-17T22:56:17.463Z,96509.55
2018-12-17T22:58:47.711Z,96506.44
2018-12-17T23:01:18.099Z,96509.92
2018-12-17T23:03:48.335Z,96503.87
2018-12-17T23:06:18.682Z,96499.70
2018-12-17T23:09:08.799Z,96496.23
2018-12-17T23:12:03.217Z,96493.97
2018-12-17T23:14:50.225Z,96498.98
2018-12-17T23:17:37.395Z,96496.29
2018-12-17T23:20:10.226Z,96499.17
2018-12-17T23:22:44.625Z,96498.11
2018-12-17T23:25:16.764Z,96493.68
2018-12-17T23:27:51.441Z,96494.84
2018-12-17T23:30:23.549Z,96497.22
2018-12-17T23:32:53.789Z,96499.77
2018-12-17T23:35:24.013Z,96493.04
2018-12-17T23:37:54.145Z,96496.44
2018-12-17T23:40:24.265Z,96491.73
2018-12-17T23:42:54.415Z,96502.73
2018-12-17T23:45:24.553Z,96503.69
2018-12-17T23:47:54.860Z,96507.34
2018-12-17T23:50:25.023Z,96505.41
2018-12-17T23:52:55.259Z,96493.03
2018-12-17T23:55:25.453Z,96490.59
2018-12-17T23:57:55.823Z,96493.72
